McLean, Nebraska
Current Conditions -  °F | °C
As of 7:35 AM on Saturday 20 Dec 2014 (Local Time) from KLCG Reporting Station
Overcast Overcast  
Wind Chill: 24°   Ceiling: 500
Heat Index: 32°   Visibility: 7mi
Dew Point: 31°   Wind: 9mph
Humidity: 94%   Direction: 190°S
Pressure: 30.08"   Gusts: NA
Location:  42.39°N, 97.47°W
Report Text: KLCG 201335Z AUTO 19008KT 7SM OVC005 00/M01 A3008 RMK AO2 T00001008
Loading
Personal Weather Stations






























Interactive Weather Map New forecast layout! Learn more

10-Day Weather Forecast

Advertisements
Track Severe Weather on mobile